sensor_id;sensor_type;location;lat;lon;timestamp;P1;durP1;ratioP1;P2;durP2;ratioP2
16031;SDS011;8120;48.308;8.914;2022-11-11T00:01:09;12.47;;;7.70;;
16031;SDS011;8120;48.308;8.914;2022-11-11T00:03:39;10.23;;;7.30;;
16031;SDS011;8120;48.308;8.914;2022-11-11T00:06:08;8.67;;;6.60;;
16031;SDS011;8120;48.308;8.914;2022-11-11T00:08:38;12.63;;;7.17;;
16031;SDS011;8120;48.308;8.914;2022-11-11T00:11:07;8.67;;;6.23;;
16031;SDS011;8120;48.308;8.914;2022-11-11T00:13:37;10.70;;;7.00;;
16031;SDS011;8120;48.308;8.914;2022-11-11T00:16:06;9.60;;;7.17;;
16031;SDS011;8120;48.308;8.914;2022-11-11T00:18:35;9.87;;;7.27;;
16031;SDS011;8120;48.308;8.914;2022-11-11T00:21:21;9.57;;;6.27;;
16031;SDS011;8120;48.308;8.914;2022-11-11T00:24:16;8.17;;;5.40;;
16031;SDS011;8120;48.308;8.914;2022-11-11T00:27:06;9.60;;;6.03;;
16031;SDS011;8120;48.308;8.914;2022-11-11T00:29:35;8.57;;;5.13;;
16031;SDS011;8120;48.308;8.914;2022-11-11T00:32:04;8.40;;;5.03;;
16031;SDS011;8120;48.308;8.914;2022-11-11T00:34:53;9.27;;;6.07;;
16031;SDS011;8120;48.308;8.914;2022-11-11T00:37:40;10.60;;;6.30;;
16031;SDS011;8120;48.308;8.914;2022-11-11T00:40:11;13.43;;;7.53;;
16031;SDS011;8120;48.308;8.914;2022-11-11T00:42:40;10.93;;;6.50;;
16031;SDS011;8120;48.308;8.914;2022-11-11T00:45:09;10.93;;;7.10;;
16031;SDS011;8120;48.308;8.914;2022-11-11T00:47:37;11.10;;;7.10;;
16031;SDS011;8120;48.308;8.914;2022-11-11T00:50:24;13.60;;;6.20;;
16031;SDS011;8120;48.308;8.914;2022-11-11T00:53:11;9.83;;;7.03;;
16031;SDS011;8120;48.308;8.914;2022-11-11T00:55:41;11.23;;;6.73;;
16031;SDS011;8120;48.308;8.914;2022-11-11T00:58:09;13.20;;;7.70;;
16031;SDS011;8120;48.308;8.914;2022-11-11T01:00:37;11.20;;;6.93;;
16031;SDS011;8120;48.308;8.914;2022-11-11T01:03:05;10.07;;;6.53;;
16031;SDS011;8120;48.308;8.914;2022-11-11T01:05:47;9.10;;;5.73;;
16031;SDS011;8120;48.308;8.914;2022-11-11T01:08:15;7.97;;;5.63;;
16031;SDS011;8120;48.308;8.914;2022-11-11T01:10:44;11.50;;;7.03;;
16031;SDS011;8120;48.308;8.914;2022-11-11T01:13:14;8.97;;;6.90;;
16031;SDS011;8120;48.308;8.914;2022-11-11T01:15:45;11.80;;;7.43;;
16031;SDS011;8120;48.308;8.914;2022-11-11T01:18:16;10.03;;;7.00;;
16031;SDS011;8120;48.308;8.914;2022-11-11T01:20:46;12.77;;;7.37;;
16031;SDS011;8120;48.308;8.914;2022-11-11T01:23:15;11.23;;;6.00;;
16031;SDS011;8120;48.308;8.914;2022-11-11T01:25:45;10.93;;;6.70;;
16031;SDS011;8120;48.308;8.914;2022-11-11T01:28:13;10.40;;;5.57;;
16031;SDS011;8120;48.308;8.914;2022-11-11T01:30:40;9.93;;;5.83;;
16031;SDS011;8120;48.308;8.914;2022-11-11T01:33:09;8.30;;;4.80;;
16031;SDS011;8120;48.308;8.914;2022-11-11T01:35:38;6.27;;;3.90;;
16031;SDS011;8120;48.308;8.914;2022-11-11T01:38:06;6.87;;;3.53;;
16031;SDS011;8120;48.308;8.914;2022-11-11T01:40:41;6.40;;;3.83;;
16031;SDS011;8120;48.308;8.914;2022-11-11T01:43:16;7.10;;;3.53;;
16031;SDS011;8120;48.308;8.914;2022-11-11T01:45:48;7.20;;;3.73;;
16031;SDS011;8120;48.308;8.914;2022-11-11T01:48:21;4.43;;;3.10;;
16031;SDS011;8120;48.308;8.914;2022-11-11T01:51:13;5.63;;;3.77;;
16031;SDS011;8120;48.308;8.914;2022-11-11T01:53:47;7.33;;;3.63;;
16031;SDS011;8120;48.308;8.914;2022-11-11T01:56:19;6.67;;;3.50;;
16031;SDS011;8120;48.308;8.914;2022-11-11T01:58:49;4.83;;;3.33;;
16031;SDS011;8120;48.308;8.914;2022-11-11T02:01:20;6.70;;;4.20;;
16031;SDS011;8120;48.308;8.914;2022-11-11T02:03:48;5.53;;;3.47;;
16031;SDS011;8120;48.308;8.914;2022-11-11T02:06:31;4.47;;;2.63;;
16031;SDS011;8120;48.308;8.914;2022-11-11T02:09:00;5.73;;;3.17;;
16031;SDS011;8120;48.308;8.914;2022-11-11T02:11:30;5.83;;;3.70;;
16031;SDS011;8120;48.308;8.914;2022-11-11T02:14:18;4.60;;;3.17;;
16031;SDS011;8120;48.308;8.914;2022-11-11T02:17:09;5.57;;;3.10;;
16031;SDS011;8120;48.308;8.914;2022-11-11T02:19:43;4.50;;;3.20;;
16031;SDS011;8120;48.308;8.914;2022-11-11T02:22:16;4.63;;;2.93;;
16031;SDS011;8120;48.308;8.914;2022-11-11T02:24:51;4.23;;;2.80;;
16031;SDS011;8120;48.308;8.914;2022-11-11T02:27:20;3.73;;;2.50;;
16031;SDS011;8120;48.308;8.914;2022-11-11T02:29:51;3.00;;;2.03;;
16031;SDS011;8120;48.308;8.914;2022-11-11T02:32:21;3.23;;;2.40;;
16031;SDS011;8120;48.308;8.914;2022-11-11T02:34:50;3.37;;;2.17;;
16031;SDS011;8120;48.308;8.914;2022-11-11T02:37:19;3.50;;;2.30;;
16031;SDS011;8120;48.308;8.914;2022-11-11T02:39:53;2.57;;;2.03;;
16031;SDS011;8120;48.308;8.914;2022-11-11T02:42:30;2.73;;;2.30;;
16031;SDS011;8120;48.308;8.914;2022-11-11T02:44:58;3.57;;;2.30;;
16031;SDS011;8120;48.308;8.914;2022-11-11T02:47:26;3.13;;;2.00;;
16031;SDS011;8120;48.308;8.914;2022-11-11T02:49:54;2.13;;;1.80;;
16031;SDS011;8120;48.308;8.914;2022-11-11T02:52:22;2.33;;;1.60;;
16031;SDS011;8120;48.308;8.914;2022-11-11T02:54:51;2.77;;;1.63;;
16031;SDS011;8120;48.308;8.914;2022-11-11T02:57:19;2.53;;;1.90;;
16031;SDS011;8120;48.308;8.914;2022-11-11T02:59:47;2.37;;;1.70;;
16031;SDS011;8120;48.308;8.914;2022-11-11T03:02:15;2.93;;;1.73;;
16031;SDS011;8120;48.308;8.914;2022-11-11T03:04:43;4.67;;;1.90;;
16031;SDS011;8120;48.308;8.914;2022-11-11T03:07:11;3.23;;;2.10;;
16031;SDS011;8120;48.308;8.914;2022-11-11T03:09:40;6.67;;;2.20;;
16031;SDS011;8120;48.308;8.914;2022-11-11T03:12:09;3.30;;;2.00;;
16031;SDS011;8120;48.308;8.914;2022-11-11T03:14:37;3.70;;;2.13;;
16031;SDS011;8120;48.308;8.914;2022-11-11T03:17:04;3.47;;;2.10;;
16031;SDS011;8120;48.308;8.914;2022-11-11T03:19:50;2.37;;;1.70;;
16031;SDS011;8120;48.308;8.914;2022-11-11T03:22:18;3.27;;;1.97;;
16031;SDS011;8120;48.308;8.914;2022-11-11T03:25:05;3.03;;;1.87;;
16031;SDS011;8120;48.308;8.914;2022-11-11T03:27:53;4.63;;;2.00;;
16031;SDS011;8120;48.308;8.914;2022-11-11T03:30:20;2.33;;;1.63;;
16031;SDS011;8120;48.308;8.914;2022-11-11T03:32:48;2.40;;;1.90;;
16031;SDS011;8120;48.308;8.914;2022-11-11T03:35:16;2.93;;;2.33;;
16031;SDS011;8120;48.308;8.914;2022-11-11T03:37:44;4.80;;;2.40;;
16031;SDS011;8120;48.308;8.914;2022-11-11T03:40:28;4.47;;;1.97;;
16031;SDS011;8120;48.308;8.914;2022-11-11T03:42:58;2.63;;;1.63;;
16031;SDS011;8120;48.308;8.914;2022-11-11T03:45:30;4.27;;;1.83;;
16031;SDS011;8120;48.308;8.914;2022-11-11T03:47:58;3.00;;;1.80;;
16031;SDS011;8120;48.308;8.914;2022-11-11T03:50:26;2.53;;;1.60;;
16031;SDS011;8120;48.308;8.914;2022-11-11T03:52:54;2.63;;;1.83;;
16031;SDS011;8120;48.308;8.914;2022-11-11T03:55:22;1.70;;;1.50;;
16031;SDS011;8120;48.308;8.914;2022-11-11T03:57:49;1.57;;;1.27;;
16031;SDS011;8120;48.308;8.914;2022-11-11T04:00:19;2.47;;;1.40;;
16031;SDS011;8120;48.308;8.914;2022-11-11T04:02:48;2.57;;;1.60;;
16031;SDS011;8120;48.308;8.914;2022-11-11T04:05:34;3.23;;;1.10;;
16031;SDS011;8120;48.308;8.914;2022-11-11T04:08:20;1.70;;;1.47;;
16031;SDS011;8120;48.308;8.914;2022-11-11T04:11:06;1.60;;;1.40;;
16031;SDS011;8120;48.308;8.914;2022-11-11T04:13:36;1.80;;;1.50;;
16031;SDS011;8120;48.308;8.914;2022-11-11T04:16:24;1.60;;;1.40;;
16031;SDS011;8120;48.308;8.914;2022-11-11T04:18:52;2.20;;;1.77;;
16031;SDS011;8120;48.308;8.914;2022-11-11T04:21:37;3.50;;;1.47;;
16031;SDS011;8120;48.308;8.914;2022-11-11T04:24:12;1.97;;;1.70;;
16031;SDS011;8120;48.308;8.914;2022-11-11T04:26:59;2.30;;;1.80;;
16031;SDS011;8120;48.308;8.914;2022-11-11T04:29:28;5.43;;;2.73;;
16031;SDS011;8120;48.308;8.914;2022-11-11T04:31:58;2.60;;;2.07;;
16031;SDS011;8120;48.308;8.914;2022-11-11T04:34:46;4.60;;;2.23;;
16031;SDS011;8120;48.308;8.914;2022-11-11T04:37:15;4.13;;;2.60;;
16031;SDS011;8120;48.308;8.914;2022-11-11T04:39:44;2.93;;;2.03;;
16031;SDS011;8120;48.308;8.914;2022-11-11T04:42:30;3.23;;;1.93;;
16031;SDS011;8120;48.308;8.914;2022-11-11T04:44:59;2.67;;;1.97;;
16031;SDS011;8120;48.308;8.914;2022-11-11T04:47:53;4.17;;;2.37;;
16031;SDS011;8120;48.308;8.914;2022-11-11T04:50:22;4.53;;;2.10;;
16031;SDS011;8120;48.308;8.914;2022-11-11T04:52:51;5.13;;;2.60;;
16031;SDS011;8120;48.308;8.914;2022-11-11T04:55:19;4.40;;;2.20;;
16031;SDS011;8120;48.308;8.914;2022-11-11T04:58:05;2.67;;;1.90;;
16031;SDS011;8120;48.308;8.914;2022-11-11T05:00:34;3.73;;;2.40;;
16031;SDS011;8120;48.308;8.914;2022-11-11T05:03:03;4.23;;;2.20;;
16031;SDS011;8120;48.308;8.914;2022-11-11T05:05:43;2.80;;;2.00;;
16031;SDS011;8120;48.308;8.914;2022-11-11T05:08:30;2.70;;;2.00;;
16031;SDS011;8120;48.308;8.914;2022-11-11T05:11:17;5.47;;;2.47;;
16031;SDS011;8120;48.308;8.914;2022-11-11T05:13:45;2.33;;;1.83;;
16031;SDS011;8120;48.308;8.914;2022-11-11T05:16:31;4.37;;;2.77;;
16031;SDS011;8120;48.308;8.914;2022-11-11T05:19:20;4.00;;;2.50;;
16031;SDS011;8120;48.308;8.914;2022-11-11T05:22:09;3.63;;;2.20;;
16031;SDS011;8120;48.308;8.914;2022-11-11T05:24:42;3.03;;;1.87;;
16031;SDS011;8120;48.308;8.914;2022-11-11T05:27:27;4.50;;;2.63;;
16031;SDS011;8120;48.308;8.914;2022-11-11T05:29:55;7.67;;;4.67;;
16031;SDS011;8120;48.308;8.914;2022-11-11T05:32:23;8.87;;;4.40;;
16031;SDS011;8120;48.308;8.914;2022-11-11T05:34:52;6.00;;;3.63;;
16031;SDS011;8120;48.308;8.914;2022-11-11T05:37:20;6.43;;;3.80;;
16031;SDS011;8120;48.308;8.914;2022-11-11T05:39:48;5.37;;;3.70;;
16031;SDS011;8120;48.308;8.914;2022-11-11T05:42:17;5.90;;;3.77;;
16031;SDS011;8120;48.308;8.914;2022-11-11T05:44:44;7.37;;;4.30;;
16031;SDS011;8120;48.308;8.914;2022-11-11T05:47:12;6.40;;;4.60;;
16031;SDS011;8120;48.308;8.914;2022-11-11T05:49:40;7.50;;;4.90;;
16031;SDS011;8120;48.308;8.914;2022-11-11T05:52:10;6.40;;;4.43;;
16031;SDS011;8120;48.308;8.914;2022-11-11T05:54:39;8.13;;;5.23;;
16031;SDS011;8120;48.308;8.914;2022-11-11T05:57:07;7.20;;;5.00;;
16031;SDS011;8120;48.308;8.914;2022-11-11T05:59:35;6.77;;;3.90;;
16031;SDS011;8120;48.308;8.914;2022-11-11T06:02:03;6.17;;;2.83;;
16031;SDS011;8120;48.308;8.914;2022-11-11T06:04:31;7.50;;;2.37;;
16031;SDS011;8120;48.308;8.914;2022-11-11T06:07:00;4.03;;;2.30;;
16031;SDS011;8120;48.308;8.914;2022-11-11T06:09:29;4.60;;;2.50;;
16031;SDS011;8120;48.308;8.914;2022-11-11T06:11:57;4.13;;;2.77;;
16031;SDS011;8120;48.308;8.914;2022-11-11T06:14:25;11.83;;;7.20;;
16031;SDS011;8120;48.308;8.914;2022-11-11T06:16:53;11.17;;;6.53;;
16031;SDS011;8120;48.308;8.914;2022-11-11T06:19:21;11.20;;;6.60;;
16031;SDS011;8120;48.308;8.914;2022-11-11T06:21:48;18.07;;;10.37;;
16031;SDS011;8120;48.308;8.914;2022-11-11T06:24:34;7.77;;;5.10;;
16031;SDS011;8120;48.308;8.914;2022-11-11T06:27:02;5.83;;;3.43;;
16031;SDS011;8120;48.308;8.914;2022-11-11T06:29:29;5.47;;;4.50;;
16031;SDS011;8120;48.308;8.914;2022-11-11T06:31:57;29.47;;;16.80;;
16031;SDS011;8120;48.308;8.914;2022-11-11T06:34:25;13.50;;;8.70;;
16031;SDS011;8120;48.308;8.914;2022-11-11T06:36:52;13.97;;;8.57;;
16031;SDS011;8120;48.308;8.914;2022-11-11T06:39:20;12.37;;;7.30;;
16031;SDS011;8120;48.308;8.914;2022-11-11T06:41:49;10.00;;;6.03;;
16031;SDS011;8120;48.308;8.914;2022-11-11T06:44:17;7.73;;;4.20;;
16031;SDS011;8120;48.308;8.914;2022-11-11T06:46:45;5.93;;;3.73;;
16031;SDS011;8120;48.308;8.914;2022-11-11T06:49:13;5.30;;;3.87;;
16031;SDS011;8120;48.308;8.914;2022-11-11T06:51:40;5.57;;;3.57;;
16031;SDS011;8120;48.308;8.914;2022-11-11T06:54:08;5.50;;;3.20;;
16031;SDS011;8120;48.308;8.914;2022-11-11T06:56:36;6.97;;;3.93;;
16031;SDS011;8120;48.308;8.914;2022-11-11T06:59:05;8.30;;;4.23;;
16031;SDS011;8120;48.308;8.914;2022-11-11T07:01:33;6.77;;;3.90;;
16031;SDS011;8120;48.308;8.914;2022-11-11T07:04:01;7.63;;;4.40;;
16031;SDS011;8120;48.308;8.914;2022-11-11T07:06:28;8.33;;;4.70;;
16031;SDS011;8120;48.308;8.914;2022-11-11T07:08:57;7.23;;;4.27;;
16031;SDS011;8120;48.308;8.914;2022-11-11T07:11:24;7.20;;;4.63;;
16031;SDS011;8120;48.308;8.914;2022-11-11T07:13:52;9.57;;;4.87;;
16031;SDS011;8120;48.308;8.914;2022-11-11T07:16:22;10.43;;;7.50;;
16031;SDS011;8120;48.308;8.914;2022-11-11T07:18:49;10.07;;;7.03;;
16031;SDS011;8120;48.308;8.914;2022-11-11T07:21:17;11.07;;;7.03;;
16031;SDS011;8120;48.308;8.914;2022-11-11T07:23:45;9.43;;;6.23;;
16031;SDS011;8120;48.308;8.914;2022-11-11T07:26:13;9.47;;;5.70;;
16031;SDS011;8120;48.308;8.914;2022-11-11T07:28:40;11.37;;;6.20;;
16031;SDS011;8120;48.308;8.914;2022-11-11T07:31:08;14.33;;;8.23;;
16031;SDS011;8120;48.308;8.914;2022-11-11T07:33:37;10.87;;;7.03;;
16031;SDS011;8120;48.308;8.914;2022-11-11T07:36:05;8.87;;;5.47;;
16031;SDS011;8120;48.308;8.914;2022-11-11T07:38:34;8.13;;;4.97;;
16031;SDS011;8120;48.308;8.914;2022-11-11T07:41:02;13.00;;;8.83;;
16031;SDS011;8120;48.308;8.914;2022-11-11T07:43:30;14.87;;;8.43;;
16031;SDS011;8120;48.308;8.914;2022-11-11T07:45:58;14.60;;;8.10;;
16031;SDS011;8120;48.308;8.914;2022-11-11T07:48:25;9.93;;;6.33;;
16031;SDS011;8120;48.308;8.914;2022-11-11T07:50:54;12.27;;;7.87;;
16031;SDS011;8120;48.308;8.914;2022-11-11T07:53:23;10.93;;;7.93;;
16031;SDS011;8120;48.308;8.914;2022-11-11T07:55:51;9.73;;;7.23;;
16031;SDS011;8120;48.308;8.914;2022-11-11T07:58:19;12.57;;;7.83;;
16031;SDS011;8120;48.308;8.914;2022-11-11T08:00:47;12.57;;;8.17;;
16031;SDS011;8120;48.308;8.914;2022-11-11T08:03:15;12.47;;;7.73;;
16031;SDS011;8120;48.308;8.914;2022-11-11T08:05:43;12.03;;;7.47;;
16031;SDS011;8120;48.308;8.914;2022-11-11T08:08:13;9.73;;;6.77;;
16031;SDS011;8120;48.308;8.914;2022-11-11T08:10:40;12.50;;;8.13;;
16031;SDS011;8120;48.308;8.914;2022-11-11T08:13:08;11.40;;;7.90;;
16031;SDS011;8120;48.308;8.914;2022-11-11T08:15:55;10.97;;;7.63;;
16031;SDS011;8120;48.308;8.914;2022-11-11T08:18:23;12.10;;;7.40;;
16031;SDS011;8120;48.308;8.914;2022-11-11T08:20:51;11.13;;;7.33;;
16031;SDS011;8120;48.308;8.914;2022-11-11T08:23:22;11.30;;;7.43;;
16031;SDS011;8120;48.308;8.914;2022-11-11T08:26:18;12.60;;;7.43;;
16031;SDS011;8120;48.308;8.914;2022-11-11T08:28:54;12.20;;;8.17;;
16031;SDS011;8120;48.308;8.914;2022-11-11T08:31:22;10.97;;;7.90;;
16031;SDS011;8120;48.308;8.914;2022-11-11T08:33:50;9.50;;;6.77;;
16031;SDS011;8120;48.308;8.914;2022-11-11T08:36:18;43.43;;;27.37;;
16031;SDS011;8120;48.308;8.914;2022-11-11T08:38:48;50.50;;;31.77;;
16031;SDS011;8120;48.308;8.914;2022-11-11T08:41:16;35.00;;;24.60;;
16031;SDS011;8120;48.308;8.914;2022-11-11T08:43:44;19.63;;;13.47;;
16031;SDS011;8120;48.308;8.914;2022-11-11T08:46:12;13.50;;;9.57;;
16031;SDS011;8120;48.308;8.914;2022-11-11T08:48:39;13.07;;;8.30;;
16031;SDS011;8120;48.308;8.914;2022-11-11T08:51:07;7.70;;;4.27;;
16031;SDS011;8120;48.308;8.914;2022-11-11T08:53:35;6.40;;;3.17;;
16031;SDS011;8120;48.308;8.914;2022-11-11T08:56:05;4.30;;;2.73;;
16031;SDS011;8120;48.308;8.914;2022-11-11T08:58:33;6.03;;;2.90;;
16031;SDS011;8120;48.308;8.914;2022-11-11T09:01:01;5.33;;;2.77;;
16031;SDS011;8120;48.308;8.914;2022-11-11T09:03:29;3.93;;;2.80;;
16031;SDS011;8120;48.308;8.914;2022-11-11T09:05:57;3.73;;;2.60;;
16031;SDS011;8120;48.308;8.914;2022-11-11T09:08:25;3.87;;;2.53;;
16031;SDS011;8120;48.308;8.914;2022-11-11T09:10:53;4.80;;;2.60;;
16031;SDS011;8120;48.308;8.914;2022-11-11T09:13:22;4.83;;;2.70;;
16031;SDS011;8120;48.308;8.914;2022-11-11T09:15:51;4.20;;;2.47;;
16031;SDS011;8120;48.308;8.914;2022-11-11T09:18:19;3.73;;;2.50;;
16031;SDS011;8120;48.308;8.914;2022-11-11T09:20:47;4.23;;;2.90;;
16031;SDS011;8120;48.308;8.914;2022-11-11T09:23:15;3.57;;;2.40;;
16031;SDS011;8120;48.308;8.914;2022-11-11T09:25:43;3.97;;;2.40;;
16031;SDS011;8120;48.308;8.914;2022-11-11T09:28:11;4.53;;;2.03;;
16031;SDS011;8120;48.308;8.914;2022-11-11T09:30:40;3.97;;;2.00;;
16031;SDS011;8120;48.308;8.914;2022-11-11T09:33:08;3.53;;;1.93;;
16031;SDS011;8120;48.308;8.914;2022-11-11T09:35:37;2.17;;;1.87;;
16031;SDS011;8120;48.308;8.914;2022-11-11T09:38:05;4.13;;;2.03;;
16031;SDS011;8120;48.308;8.914;2022-11-11T09:40:34;3.17;;;2.30;;
16031;SDS011;8120;48.308;8.914;2022-11-11T09:43:16;3.73;;;2.23;;
16031;SDS011;8120;48.308;8.914;2022-11-11T09:45:59;4.53;;;2.23;;
16031;SDS011;8120;48.308;8.914;2022-11-11T09:48:51;3.47;;;2.30;;
16031;SDS011;8120;48.308;8.914;2022-11-11T09:51:46;3.60;;;2.37;;
16031;SDS011;8120;48.308;8.914;2022-11-11T09:54:19;3.27;;;2.30;;
16031;SDS011;8120;48.308;8.914;2022-11-11T09:56:57;4.10;;;2.60;;
16031;SDS011;8120;48.308;8.914;2022-11-11T09:59:38;5.03;;;2.40;;
16031;SDS011;8120;48.308;8.914;2022-11-11T10:02:16;3.53;;;2.30;;
16031;SDS011;8120;48.308;8.914;2022-11-11T10:04:48;3.07;;;2.30;;
16031;SDS011;8120;48.308;8.914;2022-11-11T10:07:24;4.93;;;2.40;;
16031;SDS011;8120;48.308;8.914;2022-11-11T10:10:03;4.33;;;2.40;;
16031;SDS011;8120;48.308;8.914;2022-11-11T10:12:38;2.80;;;2.13;;
16031;SDS011;8120;48.308;8.914;2022-11-11T10:15:12;3.90;;;1.50;;
16031;SDS011;8120;48.308;8.914;2022-11-11T10:17:48;2.43;;;1.50;;
16031;SDS011;8120;48.308;8.914;2022-11-11T10:20:24;2.60;;;1.67;;
16031;SDS011;8120;48.308;8.914;2022-11-11T10:22:57;1.20;;;1.10;;
16031;SDS011;8120;48.308;8.914;2022-11-11T10:25:29;2.73;;;1.50;;
16031;SDS011;8120;48.308;8.914;2022-11-11T10:27:58;2.90;;;1.30;;
16031;SDS011;8120;48.308;8.914;2022-11-11T10:30:27;4.10;;;1.80;;
16031;SDS011;8120;48.308;8.914;2022-11-11T10:33:00;2.80;;;2.00;;
16031;SDS011;8120;48.308;8.914;2022-11-11T10:35:31;3.67;;;2.13;;
16031;SDS011;8120;48.308;8.914;2022-11-11T10:38:01;4.57;;;2.60;;
16031;SDS011;8120;48.308;8.914;2022-11-11T10:40:40;3.53;;;2.43;;
16031;SDS011;8120;48.308;8.914;2022-11-11T10:43:21;3.60;;;2.30;;
16031;SDS011;8120;48.308;8.914;2022-11-11T10:45:52;4.90;;;2.60;;
16031;SDS011;8120;48.308;8.914;2022-11-11T10:48:30;4.83;;;3.00;;
16031;SDS011;8120;48.308;8.914;2022-11-11T10:51:09;3.83;;;2.57;;
16031;SDS011;8120;48.308;8.914;2022-11-11T10:53:40;6.00;;;2.53;;
16031;SDS011;8120;48.308;8.914;2022-11-11T10:56:17;3.00;;;2.43;;
16031;SDS011;8120;48.308;8.914;2022-11-11T10:58:50;4.03;;;2.13;;
16031;SDS011;8120;48.308;8.914;2022-11-11T11:01:24;3.87;;;2.20;;
16031;SDS011;8120;48.308;8.914;2022-11-11T11:03:59;4.20;;;2.80;;
16031;SDS011;8120;48.308;8.914;2022-11-11T11:06:33;6.30;;;2.80;;
16031;SDS011;8120;48.308;8.914;2022-11-11T11:09:07;5.10;;;2.97;;
16031;SDS011;8120;48.308;8.914;2022-11-11T11:11:40;4.87;;;2.57;;
16031;SDS011;8120;48.308;8.914;2022-11-11T11:14:14;6.33;;;2.83;;
16031;SDS011;8120;48.308;8.914;2022-11-11T11:16:46;5.37;;;2.67;;
16031;SDS011;8120;48.308;8.914;2022-11-11T11:19:19;6.20;;;3.00;;
16031;SDS011;8120;48.308;8.914;2022-11-11T11:21:51;4.67;;;2.80;;
16031;SDS011;8120;48.308;8.914;2022-11-11T11:24:22;4.23;;;2.53;;
16031;SDS011;8120;48.308;8.914;2022-11-11T11:26:52;5.10;;;2.63;;
16031;SDS011;8120;48.308;8.914;2022-11-11T11:29:26;4.50;;;2.33;;
16031;SDS011;8120;48.308;8.914;2022-11-11T11:31:56;3.13;;;2.27;;
16031;SDS011;8120;48.308;8.914;2022-11-11T11:34:42;4.13;;;1.83;;
16031;SDS011;8120;48.308;8.914;2022-11-11T11:37:12;6.80;;;2.67;;
16031;SDS011;8120;48.308;8.914;2022-11-11T11:39:40;3.20;;;1.70;;
16031;SDS011;8120;48.308;8.914;2022-11-11T11:42:08;2.77;;;1.73;;
16031;SDS011;8120;48.308;8.914;2022-11-11T11:44:54;6.20;;;3.17;;
16031;SDS011;8120;48.308;8.914;2022-11-11T11:47:27;4.33;;;2.27;;
16031;SDS011;8120;48.308;8.914;2022-11-11T11:50:12;10.97;;;5.60;;
16031;SDS011;8120;48.308;8.914;2022-11-11T11:52:53;6.70;;;3.60;;
16031;SDS011;8120;48.308;8.914;2022-11-11T11:55:31;3.60;;;2.00;;
16031;SDS011;8120;48.308;8.914;2022-11-11T11:58:11;9.70;;;5.50;;
16031;SDS011;8120;48.308;8.914;2022-11-11T12:00:53;9.27;;;4.97;;
16031;SDS011;8120;48.308;8.914;2022-11-11T12:03:37;3.87;;;2.60;;
16031;SDS011;8120;48.308;8.914;2022-11-11T12:06:24;3.23;;;2.43;;
16031;SDS011;8120;48.308;8.914;2022-11-11T12:08:59;4.97;;;2.57;;
16031;SDS011;8120;48.308;8.914;2022-11-11T12:11:34;6.27;;;2.33;;
16031;SDS011;8120;48.308;8.914;2022-11-11T12:14:14;4.93;;;2.30;;
16031;SDS011;8120;48.308;8.914;2022-11-11T12:16:56;10.73;;;7.07;;
16031;SDS011;8120;48.308;8.914;2022-11-11T12:19:32;9.13;;;5.47;;
16031;SDS011;8120;48.308;8.914;2022-11-11T12:22:14;4.97;;;2.30;;
16031;SDS011;8120;48.308;8.914;2022-11-11T12:25:00;3.67;;;2.30;;
16031;SDS011;8120;48.308;8.914;2022-11-11T12:27:40;3.97;;;2.13;;
16031;SDS011;8120;48.308;8.914;2022-11-11T12:30:16;3.77;;;2.10;;
16031;SDS011;8120;48.308;8.914;2022-11-11T12:35:42;4.67;;;2.87;;
16031;SDS011;8120;48.308;8.914;2022-11-11T12:38:27;4.27;;;2.43;;
16031;SDS011;8120;48.308;8.914;2022-11-11T12:41:23;8.30;;;3.33;;
16031;SDS011;8120;48.308;8.914;2022-11-11T12:43:56;5.37;;;2.70;;
16031;SDS011;8120;48.308;8.914;2022-11-11T12:46:37;6.13;;;3.07;;
16031;SDS011;8120;48.308;8.914;2022-11-11T12:49:29;4.43;;;2.80;;
16031;SDS011;8120;48.308;8.914;2022-11-11T12:52:14;8.53;;;3.07;;
16031;SDS011;8120;48.308;8.914;2022-11-11T12:54:57;6.07;;;2.80;;
16031;SDS011;8120;48.308;8.914;2022-11-11T12:57:33;5.77;;;2.63;;
16031;SDS011;8120;48.308;8.914;2022-11-11T13:00:08;5.73;;;3.23;;
16031;SDS011;8120;48.308;8.914;2022-11-11T13:02:50;5.50;;;4.00;;
16031;SDS011;8120;48.308;8.914;2022-11-11T13:05:28;8.17;;;3.00;;
16031;SDS011;8120;48.308;8.914;2022-11-11T13:08:09;2.93;;;2.20;;
16031;SDS011;8120;48.308;8.914;2022-11-11T13:11:08;5.30;;;2.70;;
16031;SDS011;8120;48.308;8.914;2022-11-11T13:13:47;5.80;;;3.13;;
16031;SDS011;8120;48.308;8.914;2022-11-11T13:16:23;6.87;;;3.00;;
16031;SDS011;8120;48.308;8.914;2022-11-11T13:18:53;4.47;;;2.93;;
16031;SDS011;8120;48.308;8.914;2022-11-11T13:21:25;4.40;;;2.77;;
16031;SDS011;8120;48.308;8.914;2022-11-11T13:24:00;5.63;;;2.73;;
16031;SDS011;8120;48.308;8.914;2022-11-11T13:26:32;5.50;;;2.70;;
16031;SDS011;8120;48.308;8.914;2022-11-11T13:29:14;5.93;;;2.80;;
16031;SDS011;8120;48.308;8.914;2022-11-11T13:31:58;3.43;;;2.40;;
16031;SDS011;8120;48.308;8.914;2022-11-11T13:34:29;4.23;;;2.83;;
16031;SDS011;8120;48.308;8.914;2022-11-11T13:37:00;5.97;;;2.93;;
16031;SDS011;8120;48.308;8.914;2022-11-11T13:39:32;3.93;;;2.70;;
16031;SDS011;8120;48.308;8.914;2022-11-11T13:42:06;4.27;;;2.53;;
16031;SDS011;8120;48.308;8.914;2022-11-11T13:44:38;5.93;;;2.97;;
16031;SDS011;8120;48.308;8.914;2022-11-11T13:47:17;4.87;;;2.60;;
16031;SDS011;8120;48.308;8.914;2022-11-11T13:49:50;4.77;;;2.70;;
16031;SDS011;8120;48.308;8.914;2022-11-11T13:52:21;6.17;;;2.57;;
16031;SDS011;8120;48.308;8.914;2022-11-11T13:54:55;4.17;;;2.70;;
16031;SDS011;8120;48.308;8.914;2022-11-11T13:57:27;6.00;;;3.70;;
16031;SDS011;8120;48.308;8.914;2022-11-11T14:00:02;6.63;;;3.40;;
16031;SDS011;8120;48.308;8.914;2022-11-11T14:02:32;4.90;;;2.97;;
16031;SDS011;8120;48.308;8.914;2022-11-11T14:05:14;4.70;;;2.73;;
16031;SDS011;8120;48.308;8.914;2022-11-11T14:07:47;6.10;;;3.20;;
16031;SDS011;8120;48.308;8.914;2022-11-11T14:13:40;4.80;;;3.27;;
16031;SDS011;8120;48.308;8.914;2022-11-11T14:16:08;6.03;;;3.10;;
16031;SDS011;8120;48.308;8.914;2022-11-11T14:19:11;4.60;;;3.00;;
16031;SDS011;8120;48.308;8.914;2022-11-11T14:21:50;6.67;;;3.20;;
16031;SDS011;8120;48.308;8.914;2022-11-11T14:24:25;5.20;;;3.40;;
16031;SDS011;8120;48.308;8.914;2022-11-11T14:26:59;4.43;;;2.97;;
16031;SDS011;8120;48.308;8.914;2022-11-11T14:29:31;5.43;;;3.27;;
16031;SDS011;8120;48.308;8.914;2022-11-11T14:32:03;6.73;;;3.10;;
16031;SDS011;8120;48.308;8.914;2022-11-11T14:35:06;4.10;;;2.60;;
16031;SDS011;8120;48.308;8.914;2022-11-11T14:37:56;4.43;;;3.03;;
16031;SDS011;8120;48.308;8.914;2022-11-11T14:40:40;3.27;;;2.60;;
16031;SDS011;8120;48.308;8.914;2022-11-11T14:46:07;6.10;;;2.90;;
16031;SDS011;8120;48.308;8.914;2022-11-11T14:48:56;4.07;;;2.70;;
16031;SDS011;8120;48.308;8.914;2022-11-11T14:51:42;4.23;;;2.90;;
16031;SDS011;8120;48.308;8.914;2022-11-11T14:54:28;6.87;;;3.13;;
16031;SDS011;8120;48.308;8.914;2022-11-11T14:57:05;4.70;;;3.10;;
16031;SDS011;8120;48.308;8.914;2022-11-11T14:59:35;3.93;;;2.57;;
16031;SDS011;8120;48.308;8.914;2022-11-11T15:02:10;4.63;;;2.90;;
16031;SDS011;8120;48.308;8.914;2022-11-11T15:04:47;5.60;;;3.00;;
16031;SDS011;8120;48.308;8.914;2022-11-11T15:07:25;5.70;;;3.27;;
16031;SDS011;8120;48.308;8.914;2022-11-11T15:10:02;5.07;;;3.13;;
16031;SDS011;8120;48.308;8.914;2022-11-11T15:12:42;5.37;;;3.43;;
16031;SDS011;8120;48.308;8.914;2022-11-11T15:15:31;8.03;;;4.43;;
16031;SDS011;8120;48.308;8.914;2022-11-11T15:18:11;6.17;;;3.90;;
16031;SDS011;8120;48.308;8.914;2022-11-11T15:21:08;6.77;;;4.37;;
16031;SDS011;8120;48.308;8.914;2022-11-11T15:23:41;6.47;;;3.27;;
16031;SDS011;8120;48.308;8.914;2022-11-11T15:26:17;6.00;;;3.70;;
16031;SDS011;8120;48.308;8.914;2022-11-11T15:28:58;4.20;;;2.80;;
16031;SDS011;8120;48.308;8.914;2022-11-11T15:31:38;4.83;;;3.20;;
16031;SDS011;8120;48.308;8.914;2022-11-11T15:34:19;5.83;;;3.07;;
16031;SDS011;8120;48.308;8.914;2022-11-11T15:36:56;7.20;;;4.70;;
16031;SDS011;8120;48.308;8.914;2022-11-11T15:39:31;10.57;;;6.20;;
16031;SDS011;8120;48.308;8.914;2022-11-11T15:42:04;14.00;;;7.17;;
16031;SDS011;8120;48.308;8.914;2022-11-11T15:44:37;11.23;;;7.33;;
16031;SDS011;8120;48.308;8.914;2022-11-11T15:47:05;14.10;;;8.60;;